sensor_id;sensor_type;location;lat;lon;timestamp;P1;durP1;ratioP1;P2;durP2;ratioP2
5690;SDS011;2870;42.680;23.364;2022-09-03T00:02:27;13.77;;;10.00;;
5690;SDS011;2870;42.680;23.364;2022-09-03T00:05:04;12.50;;;8.57;;
5690;SDS011;2870;42.680;23.364;2022-09-03T00:07:38;13.80;;;9.93;;
5690;SDS011;2870;42.680;23.364;2022-09-03T00:10:12;13.13;;;9.13;;
5690;SDS011;2870;42.680;23.364;2022-09-03T00:12:46;12.50;;;9.80;;
5690;SDS011;2870;42.680;23.364;2022-09-03T00:15:17;20.60;;;9.20;;
5690;SDS011;2870;42.680;23.364;2022-09-03T00:17:47;12.77;;;8.63;;
5690;SDS011;2870;42.680;23.364;2022-09-03T00:20:20;14.83;;;9.10;;
5690;SDS011;2870;42.680;23.364;2022-09-03T00:22:52;13.10;;;8.70;;
5690;SDS011;2870;42.680;23.364;2022-09-03T00:25:23;12.37;;;8.80;;
5690;SDS011;2870;42.680;23.364;2022-09-03T00:27:56;12.53;;;8.23;;
5690;SDS011;2870;42.680;23.364;2022-09-03T00:30:25;13.90;;;9.20;;
5690;SDS011;2870;42.680;23.364;2022-09-03T00:32:55;15.20;;;9.80;;
5690;SDS011;2870;42.680;23.364;2022-09-03T00:35:27;13.10;;;9.60;;
5690;SDS011;2870;42.680;23.364;2022-09-03T00:37:59;13.10;;;9.93;;
5690;SDS011;2870;42.680;23.364;2022-09-03T00:40:31;15.20;;;9.73;;
5690;SDS011;2870;42.680;23.364;2022-09-03T00:43:07;13.63;;;9.40;;
5690;SDS011;2870;42.680;23.364;2022-09-03T00:45:45;13.23;;;9.33;;
5690;SDS011;2870;42.680;23.364;2022-09-03T00:48:23;17.30;;;10.00;;
5690;SDS011;2870;42.680;23.364;2022-09-03T00:50:58;13.07;;;8.60;;
5690;SDS011;2870;42.680;23.364;2022-09-03T00:53:39;17.37;;;9.63;;
5690;SDS011;2870;42.680;23.364;2022-09-03T00:56:18;16.33;;;8.90;;
5690;SDS011;2870;42.680;23.364;2022-09-03T00:58:54;12.90;;;8.50;;
5690;SDS011;2870;42.680;23.364;2022-09-03T01:01:35;14.37;;;9.57;;
5690;SDS011;2870;42.680;23.364;2022-09-03T01:04:14;12.07;;;8.27;;
5690;SDS011;2870;42.680;23.364;2022-09-03T01:06:56;15.50;;;9.53;;
5690;SDS011;2870;42.680;23.364;2022-09-03T01:09:33;12.53;;;9.07;;
5690;SDS011;2870;42.680;23.364;2022-09-03T01:12:13;18.57;;;10.37;;
5690;SDS011;2870;42.680;23.364;2022-09-03T01:14:50;11.60;;;8.37;;
5690;SDS011;2870;42.680;23.364;2022-09-03T01:17:31;11.90;;;8.90;;
5690;SDS011;2870;42.680;23.364;2022-09-03T01:20:20;14.40;;;8.50;;
5690;SDS011;2870;42.680;23.364;2022-09-03T01:23:10;14.20;;;9.20;;
5690;SDS011;2870;42.680;23.364;2022-09-03T01:25:53;17.70;;;9.70;;
5690;SDS011;2870;42.680;23.364;2022-09-03T01:28:39;11.80;;;8.77;;
5690;SDS011;2870;42.680;23.364;2022-09-03T01:31:15;10.77;;;8.83;;
5690;SDS011;2870;42.680;23.364;2022-09-03T01:33:51;11.57;;;8.50;;
5690;SDS011;2870;42.680;23.364;2022-09-03T01:36:28;11.30;;;8.07;;
5690;SDS011;2870;42.680;23.364;2022-09-03T01:39:00;19.20;;;9.80;;
5690;SDS011;2870;42.680;23.364;2022-09-03T01:41:34;11.33;;;9.00;;
5690;SDS011;2870;42.680;23.364;2022-09-03T01:44:34;13.07;;;8.90;;
5690;SDS011;2870;42.680;23.364;2022-09-03T01:47:10;13.50;;;9.30;;
5690;SDS011;2870;42.680;23.364;2022-09-03T01:49:45;11.80;;;8.30;;
5690;SDS011;2870;42.680;23.364;2022-09-03T01:52:24;11.77;;;9.17;;
5690;SDS011;2870;42.680;23.364;2022-09-03T01:55:05;13.23;;;9.83;;
5690;SDS011;2870;42.680;23.364;2022-09-03T01:57:48;13.87;;;9.23;;
5690;SDS011;2870;42.680;23.364;2022-09-03T02:00:22;12.67;;;8.73;;
5690;SDS011;2870;42.680;23.364;2022-09-03T02:02:53;13.17;;;9.93;;
5690;SDS011;2870;42.680;23.364;2022-09-03T02:05:20;14.00;;;9.43;;
5690;SDS011;2870;42.680;23.364;2022-09-03T02:07:49;13.33;;;9.83;;
5690;SDS011;2870;42.680;23.364;2022-09-03T02:10:20;14.00;;;9.40;;
5690;SDS011;2870;42.680;23.364;2022-09-03T02:12:52;12.80;;;9.40;;
5690;SDS011;2870;42.680;23.364;2022-09-03T02:15:24;14.63;;;10.67;;
5690;SDS011;2870;42.680;23.364;2022-09-03T02:17:53;12.87;;;9.87;;
5690;SDS011;2870;42.680;23.364;2022-09-03T02:20:24;11.47;;;8.33;;
5690;SDS011;2870;42.680;23.364;2022-09-03T02:22:53;17.63;;;10.73;;
5690;SDS011;2870;42.680;23.364;2022-09-03T02:25:23;13.23;;;9.63;;
5690;SDS011;2870;42.680;23.364;2022-09-03T02:27:56;13.80;;;9.43;;
5690;SDS011;2870;42.680;23.364;2022-09-03T02:30:25;15.53;;;10.83;;
5690;SDS011;2870;42.680;23.364;2022-09-03T02:32:52;13.83;;;10.07;;
5690;SDS011;2870;42.680;23.364;2022-09-03T02:35:19;14.10;;;9.63;;
5690;SDS011;2870;42.680;23.364;2022-09-03T02:37:46;14.13;;;9.70;;
5690;SDS011;2870;42.680;23.364;2022-09-03T02:40:12;13.57;;;9.80;;
5690;SDS011;2870;42.680;23.364;2022-09-03T02:42:40;17.20;;;9.00;;
5690;SDS011;2870;42.680;23.364;2022-09-03T02:45:09;16.30;;;9.70;;
5690;SDS011;2870;42.680;23.364;2022-09-03T02:47:46;13.17;;;9.60;;
5690;SDS011;2870;42.680;23.364;2022-09-03T02:50:17;14.07;;;9.37;;
5690;SDS011;2870;42.680;23.364;2022-09-03T02:52:44;14.10;;;10.07;;
5690;SDS011;2870;42.680;23.364;2022-09-03T02:55:10;17.27;;;10.30;;
5690;SDS011;2870;42.680;23.364;2022-09-03T02:57:37;15.60;;;10.50;;
5690;SDS011;2870;42.680;23.364;2022-09-03T03:00:04;14.20;;;10.30;;
5690;SDS011;2870;42.680;23.364;2022-09-03T03:02:32;13.80;;;10.10;;
5690;SDS011;2870;42.680;23.364;2022-09-03T03:05:00;15.07;;;10.10;;
5690;SDS011;2870;42.680;23.364;2022-09-03T03:07:27;16.00;;;10.90;;
5690;SDS011;2870;42.680;23.364;2022-09-03T03:09:57;16.00;;;9.57;;
5690;SDS011;2870;42.680;23.364;2022-09-03T03:12:24;16.73;;;10.43;;
5690;SDS011;2870;42.680;23.364;2022-09-03T03:14:51;17.20;;;10.27;;
5690;SDS011;2870;42.680;23.364;2022-09-03T03:17:18;15.53;;;10.90;;
5690;SDS011;2870;42.680;23.364;2022-09-03T03:19:44;14.93;;;10.30;;
5690;SDS011;2870;42.680;23.364;2022-09-03T03:22:12;15.57;;;10.43;;
5690;SDS011;2870;42.680;23.364;2022-09-03T03:24:39;14.37;;;10.00;;
5690;SDS011;2870;42.680;23.364;2022-09-03T03:27:06;18.33;;;11.07;;
5690;SDS011;2870;42.680;23.364;2022-09-03T03:29:35;13.80;;;10.17;;
5690;SDS011;2870;42.680;23.364;2022-09-03T03:32:03;12.43;;;9.50;;
5690;SDS011;2870;42.680;23.364;2022-09-03T03:34:30;18.23;;;10.43;;
5690;SDS011;2870;42.680;23.364;2022-09-03T03:36:57;16.93;;;11.30;;
5690;SDS011;2870;42.680;23.364;2022-09-03T03:39:25;13.40;;;9.83;;
5690;SDS011;2870;42.680;23.364;2022-09-03T03:41:52;15.53;;;9.10;;
5690;SDS011;2870;42.680;23.364;2022-09-03T03:44:19;15.20;;;10.27;;
5690;SDS011;2870;42.680;23.364;2022-09-03T03:46:45;18.17;;;10.23;;
5690;SDS011;2870;42.680;23.364;2022-09-03T03:49:12;17.50;;;10.10;;
5690;SDS011;2870;42.680;23.364;2022-09-03T03:51:39;13.83;;;9.97;;
5690;SDS011;2870;42.680;23.364;2022-09-03T03:54:06;20.03;;;10.00;;
5690;SDS011;2870;42.680;23.364;2022-09-03T03:56:34;15.50;;;10.43;;
5690;SDS011;2870;42.680;23.364;2022-09-03T03:59:01;14.00;;;9.70;;
5690;SDS011;2870;42.680;23.364;2022-09-03T04:01:28;15.43;;;10.10;;
5690;SDS011;2870;42.680;23.364;2022-09-03T04:03:55;15.47;;;10.00;;
5690;SDS011;2870;42.680;23.364;2022-09-03T04:06:22;12.33;;;9.70;;
5690;SDS011;2870;42.680;23.364;2022-09-03T04:08:49;13.10;;;9.50;;
5690;SDS011;2870;42.680;23.364;2022-09-03T04:11:17;16.77;;;10.50;;
5690;SDS011;2870;42.680;23.364;2022-09-03T04:13:46;15.80;;;9.70;;
5690;SDS011;2870;42.680;23.364;2022-09-03T04:16:15;15.57;;;10.73;;
5690;SDS011;2870;42.680;23.364;2022-09-03T04:18:43;14.17;;;9.63;;
5690;SDS011;2870;42.680;23.364;2022-09-03T04:21:10;13.23;;;10.10;;
5690;SDS011;2870;42.680;23.364;2022-09-03T04:23:38;15.50;;;10.57;;
5690;SDS011;2870;42.680;23.364;2022-09-03T04:26:06;17.50;;;10.50;;
5690;SDS011;2870;42.680;23.364;2022-09-03T04:28:34;14.67;;;10.13;;
5690;SDS011;2870;42.680;23.364;2022-09-03T04:31:03;13.33;;;9.70;;
5690;SDS011;2870;42.680;23.364;2022-09-03T04:33:32;13.00;;;9.80;;
5690;SDS011;2870;42.680;23.364;2022-09-03T04:36:03;17.30;;;11.67;;
5690;SDS011;2870;42.680;23.364;2022-09-03T04:38:31;15.93;;;10.23;;
5690;SDS011;2870;42.680;23.364;2022-09-03T04:40:58;17.77;;;11.10;;
5690;SDS011;2870;42.680;23.364;2022-09-03T04:43:25;20.50;;;12.10;;
5690;SDS011;2870;42.680;23.364;2022-09-03T04:45:55;19.37;;;10.97;;
5690;SDS011;2870;42.680;23.364;2022-09-03T04:48:25;20.37;;;10.73;;
5690;SDS011;2870;42.680;23.364;2022-09-03T04:50:52;15.47;;;10.50;;
5690;SDS011;2870;42.680;23.364;2022-09-03T04:53:20;16.40;;;11.07;;
5690;SDS011;2870;42.680;23.364;2022-09-03T04:55:47;15.43;;;10.73;;
5690;SDS011;2870;42.680;23.364;2022-09-03T04:58:15;14.20;;;10.30;;
5690;SDS011;2870;42.680;23.364;2022-09-03T05:00:42;15.90;;;11.23;;
5690;SDS011;2870;42.680;23.364;2022-09-03T05:03:09;14.60;;;10.13;;
5690;SDS011;2870;42.680;23.364;2022-09-03T05:05:38;15.80;;;10.80;;
5690;SDS011;2870;42.680;23.364;2022-09-03T05:08:04;19.73;;;11.27;;
5690;SDS011;2870;42.680;23.364;2022-09-03T05:10:31;16.57;;;10.43;;
5690;SDS011;2870;42.680;23.364;2022-09-03T05:12:59;15.53;;;10.73;;
5690;SDS011;2870;42.680;23.364;2022-09-03T05:15:28;15.13;;;10.67;;
5690;SDS011;2870;42.680;23.364;2022-09-03T05:17:57;12.90;;;8.80;;
5690;SDS011;2870;42.680;23.364;2022-09-03T05:20:25;16.50;;;9.90;;
5690;SDS011;2870;42.680;23.364;2022-09-03T05:22:55;23.60;;;10.43;;
5690;SDS011;2870;42.680;23.364;2022-09-03T05:25:23;16.10;;;10.30;;
5690;SDS011;2870;42.680;23.364;2022-09-03T05:27:50;16.77;;;9.70;;
5690;SDS011;2870;42.680;23.364;2022-09-03T05:30:18;16.73;;;10.67;;
5690;SDS011;2870;42.680;23.364;2022-09-03T05:32:46;14.20;;;8.70;;
5690;SDS011;2870;42.680;23.364;2022-09-03T05:35:13;12.77;;;8.93;;
5690;SDS011;2870;42.680;23.364;2022-09-03T05:37:40;14.73;;;9.60;;
5690;SDS011;2870;42.680;23.364;2022-09-03T05:40:09;23.13;;;10.30;;
5690;SDS011;2870;42.680;23.364;2022-09-03T05:42:36;13.77;;;9.50;;
5690;SDS011;2870;42.680;23.364;2022-09-03T05:45:05;15.50;;;9.60;;
5690;SDS011;2870;42.680;23.364;2022-09-03T05:47:35;14.37;;;9.97;;
5690;SDS011;2870;42.680;23.364;2022-09-03T05:50:03;14.57;;;9.40;;
5690;SDS011;2870;42.680;23.364;2022-09-03T05:52:31;14.80;;;10.57;;
5690;SDS011;2870;42.680;23.364;2022-09-03T05:54:58;16.43;;;10.80;;
5690;SDS011;2870;42.680;23.364;2022-09-03T05:57:27;13.30;;;10.17;;
5690;SDS011;2870;42.680;23.364;2022-09-03T05:59:54;16.00;;;10.67;;
5690;SDS011;2870;42.680;23.364;2022-09-03T06:02:21;14.80;;;10.47;;
5690;SDS011;2870;42.680;23.364;2022-09-03T06:04:48;15.63;;;11.43;;
5690;SDS011;2870;42.680;23.364;2022-09-03T06:07:15;14.60;;;10.50;;
5690;SDS011;2870;42.680;23.364;2022-09-03T06:09:42;14.33;;;10.27;;
5690;SDS011;2870;42.680;23.364;2022-09-03T06:12:09;13.17;;;9.60;;
5690;SDS011;2870;42.680;23.364;2022-09-03T06:14:37;17.20;;;9.47;;
5690;SDS011;2870;42.680;23.364;2022-09-03T06:17:03;23.77;;;10.17;;
5690;SDS011;2870;42.680;23.364;2022-09-03T06:19:30;15.13;;;10.20;;
5690;SDS011;2870;42.680;23.364;2022-09-03T06:21:57;24.27;;;10.93;;
5690;SDS011;2870;42.680;23.364;2022-09-03T06:24:24;12.50;;;9.37;;
5690;SDS011;2870;42.680;23.364;2022-09-03T06:26:53;12.67;;;9.70;;
5690;SDS011;2870;42.680;23.364;2022-09-03T06:29:20;19.90;;;12.77;;
5690;SDS011;2870;42.680;23.364;2022-09-03T06:31:48;18.20;;;11.10;;
5690;SDS011;2870;42.680;23.364;2022-09-03T06:34:16;16.63;;;10.47;;
5690;SDS011;2870;42.680;23.364;2022-09-03T06:36:43;16.40;;;10.73;;
5690;SDS011;2870;42.680;23.364;2022-09-03T06:39:10;19.27;;;11.17;;
5690;SDS011;2870;42.680;23.364;2022-09-03T06:41:37;14.60;;;9.80;;
5690;SDS011;2870;42.680;23.364;2022-09-03T06:44:04;15.80;;;9.73;;
5690;SDS011;2870;42.680;23.364;2022-09-03T06:46:36;15.13;;;9.80;;
5690;SDS011;2870;42.680;23.364;2022-09-03T06:49:07;12.30;;;9.20;;
5690;SDS011;2870;42.680;23.364;2022-09-03T06:51:34;14.17;;;10.13;;
5690;SDS011;2870;42.680;23.364;2022-09-03T06:54:02;19.70;;;9.70;;
5690;SDS011;2870;42.680;23.364;2022-09-03T06:56:31;15.40;;;9.77;;
5690;SDS011;2870;42.680;23.364;2022-09-03T06:58:59;16.30;;;11.83;;
5690;SDS011;2870;42.680;23.364;2022-09-03T07:01:29;14.67;;;10.40;;
5690;SDS011;2870;42.680;23.364;2022-09-03T07:03:58;12.97;;;9.20;;
5690;SDS011;2870;42.680;23.364;2022-09-03T07:06:28;14.80;;;9.53;;
5690;SDS011;2870;42.680;23.364;2022-09-03T07:08:56;13.30;;;9.20;;
5690;SDS011;2870;42.680;23.364;2022-09-03T07:11:24;12.30;;;8.90;;
5690;SDS011;2870;42.680;23.364;2022-09-03T07:13:53;19.80;;;9.73;;
5690;SDS011;2870;42.680;23.364;2022-09-03T07:16:22;15.83;;;9.87;;
5690;SDS011;2870;42.680;23.364;2022-09-03T07:18:50;16.57;;;10.30;;
5690;SDS011;2870;42.680;23.364;2022-09-03T07:21:18;18.30;;;10.80;;
5690;SDS011;2870;42.680;23.364;2022-09-03T07:23:49;13.57;;;9.77;;
5690;SDS011;2870;42.680;23.364;2022-09-03T07:26:18;20.90;;;9.70;;
5690;SDS011;2870;42.680;23.364;2022-09-03T07:28:47;17.57;;;9.27;;
5690;SDS011;2870;42.680;23.364;2022-09-03T07:31:16;13.50;;;9.60;;
5690;SDS011;2870;42.680;23.364;2022-09-03T07:33:44;19.00;;;9.80;;
5690;SDS011;2870;42.680;23.364;2022-09-03T07:36:11;12.80;;;9.50;;
5690;SDS011;2870;42.680;23.364;2022-09-03T07:38:40;13.63;;;9.30;;
5690;SDS011;2870;42.680;23.364;2022-09-03T07:41:10;14.80;;;9.50;;
5690;SDS011;2870;42.680;23.364;2022-09-03T07:43:39;18.23;;;10.10;;
5690;SDS011;2870;42.680;23.364;2022-09-03T07:46:07;12.87;;;9.00;;
5690;SDS011;2870;42.680;23.364;2022-09-03T07:48:37;13.00;;;9.70;;
5690;SDS011;2870;42.680;23.364;2022-09-03T07:51:04;12.00;;;8.80;;
5690;SDS011;2870;42.680;23.364;2022-09-03T07:53:31;13.90;;;9.73;;
5690;SDS011;2870;42.680;23.364;2022-09-03T07:56:02;12.40;;;9.10;;
5690;SDS011;2870;42.680;23.364;2022-09-03T07:58:32;11.77;;;9.00;;
5690;SDS011;2870;42.680;23.364;2022-09-03T08:01:03;15.47;;;9.23;;
5690;SDS011;2870;42.680;23.364;2022-09-03T08:03:32;14.90;;;9.53;;
5690;SDS011;2870;42.680;23.364;2022-09-03T08:05:59;11.83;;;8.67;;
5690;SDS011;2870;42.680;23.364;2022-09-03T08:08:27;13.70;;;9.27;;
5690;SDS011;2870;42.680;23.364;2022-09-03T08:10:55;12.67;;;9.13;;
5690;SDS011;2870;42.680;23.364;2022-09-03T08:13:28;13.37;;;9.60;;
5690;SDS011;2870;42.680;23.364;2022-09-03T08:15:56;11.90;;;8.03;;
5690;SDS011;2870;42.680;23.364;2022-09-03T08:18:24;11.90;;;8.90;;
5690;SDS011;2870;42.680;23.364;2022-09-03T08:20:51;12.43;;;8.73;;
5690;SDS011;2870;42.680;23.364;2022-09-03T08:23:18;11.23;;;8.57;;
5690;SDS011;2870;42.680;23.364;2022-09-03T08:25:44;15.47;;;10.00;;
5690;SDS011;2870;42.680;23.364;2022-09-03T08:28:11;13.33;;;9.03;;
5690;SDS011;2870;42.680;23.364;2022-09-03T08:30:38;9.73;;;7.60;;
5690;SDS011;2870;42.680;23.364;2022-09-03T08:33:06;10.40;;;7.60;;
5690;SDS011;2870;42.680;23.364;2022-09-03T08:35:33;11.87;;;8.90;;
5690;SDS011;2870;42.680;23.364;2022-09-03T08:38:00;11.53;;;8.57;;
5690;SDS011;2870;42.680;23.364;2022-09-03T08:40:30;14.57;;;9.83;;
5690;SDS011;2870;42.680;23.364;2022-09-03T08:43:02;10.50;;;7.60;;
5690;SDS011;2870;42.680;23.364;2022-09-03T08:45:41;13.60;;;8.13;;
5690;SDS011;2870;42.680;23.364;2022-09-03T08:48:11;10.27;;;7.80;;
5690;SDS011;2870;42.680;23.364;2022-09-03T08:50:42;11.80;;;7.80;;
5690;SDS011;2870;42.680;23.364;2022-09-03T08:53:16;11.33;;;8.20;;
5690;SDS011;2870;42.680;23.364;2022-09-03T08:55:49;12.20;;;8.13;;
5690;SDS011;2870;42.680;23.364;2022-09-03T08:58:18;10.10;;;7.70;;
5690;SDS011;2870;42.680;23.364;2022-09-03T09:00:47;11.33;;;7.97;;
5690;SDS011;2870;42.680;23.364;2022-09-03T09:06:20;25.60;;;8.57;;
5690;SDS011;2870;42.680;23.364;2022-09-03T09:08:58;7.53;;;5.83;;
5690;SDS011;2870;42.680;23.364;2022-09-03T09:11:33;14.00;;;7.07;;
5690;SDS011;2870;42.680;23.364;2022-09-03T09:14:11;9.93;;;6.93;;
5690;SDS011;2870;42.680;23.364;2022-09-03T09:16:46;11.40;;;8.70;;
5690;SDS011;2870;42.680;23.364;2022-09-03T09:19:25;10.70;;;8.00;;
5690;SDS011;2870;42.680;23.364;2022-09-03T09:22:00;10.40;;;7.70;;
5690;SDS011;2870;42.680;23.364;2022-09-03T09:24:32;11.33;;;8.50;;
5690;SDS011;2870;42.680;23.364;2022-09-03T09:27:05;10.70;;;8.00;;
5690;SDS011;2870;42.680;23.364;2022-09-03T09:29:34;15.63;;;10.10;;
5690;SDS011;2870;42.680;23.364;2022-09-03T09:32:02;16.27;;;9.83;;
5690;SDS011;2870;42.680;23.364;2022-09-03T09:34:34;8.80;;;6.50;;
5690;SDS011;2870;42.680;23.364;2022-09-03T09:37:02;9.30;;;6.67;;
5690;SDS011;2870;42.680;23.364;2022-09-03T09:39:31;8.10;;;6.43;;
5690;SDS011;2870;42.680;23.364;2022-09-03T09:41:58;18.63;;;7.37;;
5690;SDS011;2870;42.680;23.364;2022-09-03T09:44:32;10.27;;;7.20;;
5690;SDS011;2870;42.680;23.364;2022-09-03T09:47:03;10.37;;;6.70;;
5690;SDS011;2870;42.680;23.364;2022-09-03T09:49:34;14.93;;;8.30;;
5690;SDS011;2870;42.680;23.364;2022-09-03T09:52:08;11.00;;;7.80;;
5690;SDS011;2870;42.680;23.364;2022-09-03T09:54:37;12.00;;;7.90;;
5690;SDS011;2870;42.680;23.364;2022-09-03T09:57:05;10.73;;;6.87;;
5690;SDS011;2870;42.680;23.364;2022-09-03T09:59:33;9.10;;;6.70;;
5690;SDS011;2870;42.680;23.364;2022-09-03T10:02:09;9.63;;;6.80;;
5690;SDS011;2870;42.680;23.364;2022-09-03T10:04:39;8.90;;;6.40;;
5690;SDS011;2870;42.680;23.364;2022-09-03T10:07:20;8.70;;;7.20;;
5690;SDS011;2870;42.680;23.364;2022-09-03T10:09:56;11.60;;;6.90;;
5690;SDS011;2870;42.680;23.364;2022-09-03T10:12:26;9.00;;;7.30;;
5690;SDS011;2870;42.680;23.364;2022-09-03T10:15:00;8.47;;;6.70;;
5690;SDS011;2870;42.680;23.364;2022-09-03T10:17:38;8.23;;;6.30;;
5690;SDS011;2870;42.680;23.364;2022-09-03T10:20:12;9.03;;;7.03;;
5690;SDS011;2870;42.680;23.364;2022-09-03T10:22:55;8.67;;;6.70;;
5690;SDS011;2870;42.680;23.364;2022-09-03T10:25:26;8.53;;;6.60;;
5690;SDS011;2870;42.680;23.364;2022-09-03T10:27:59;9.90;;;6.57;;
5690;SDS011;2870;42.680;23.364;2022-09-03T10:30:27;8.40;;;6.03;;
5690;SDS011;2870;42.680;23.364;2022-09-03T10:33:13;9.20;;;6.60;;
5690;SDS011;2870;42.680;23.364;2022-09-03T10:35:48;10.13;;;6.63;;
5690;SDS011;2870;42.680;23.364;2022-09-03T10:38:19;11.80;;;7.33;;
5690;SDS011;2870;42.680;23.364;2022-09-03T10:40:56;9.50;;;6.60;;
5690;SDS011;2870;42.680;23.364;2022-09-03T10:46:28;8.77;;;6.50;;
5690;SDS011;2870;42.680;23.364;2022-09-03T10:49:19;8.30;;;6.70;;
5690;SDS011;2870;42.680;23.364;2022-09-03T10:51:58;9.00;;;6.30;;
5690;SDS011;2870;42.680;23.364;2022-09-03T10:54:31;8.07;;;6.17;;
5690;SDS011;2870;42.680;23.364;2022-09-03T10:57:14;10.30;;;6.63;;
5690;SDS011;2870;42.680;23.364;2022-09-03T10:59:56;8.70;;;6.30;;
5690;SDS011;2870;42.680;23.364;2022-09-03T11:05:37;10.13;;;6.47;;
5690;SDS011;2870;42.680;23.364;2022-09-03T11:08:11;10.37;;;6.50;;
5690;SDS011;2870;42.680;23.364;2022-09-03T11:10:43;20.17;;;6.70;;
5690;SDS011;2870;42.680;23.364;2022-09-03T11:13:16;10.90;;;6.47;;
5690;SDS011;2870;42.680;23.364;2022-09-03T11:15:47;7.77;;;5.77;;
5690;SDS011;2870;42.680;23.364;2022-09-03T11:18:18;7.97;;;5.90;;
5690;SDS011;2870;42.680;23.364;2022-09-03T11:20:48;10.03;;;5.83;;
5690;SDS011;2870;42.680;23.364;2022-09-03T11:23:19;8.03;;;6.40;;
5690;SDS011;2870;42.680;23.364;2022-09-03T11:25:48;7.97;;;6.50;;
5690;SDS011;2870;42.680;23.364;2022-09-03T11:28:22;8.20;;;5.80;;
5690;SDS011;2870;42.680;23.364;2022-09-03T11:31:08;9.50;;;6.23;;
5690;SDS011;2870;42.680;23.364;2022-09-03T11:33:43;9.10;;;6.17;;
5690;SDS011;2870;42.680;23.364;2022-09-03T11:36:13;11.40;;;5.90;;
5690;SDS011;2870;42.680;23.364;2022-09-03T11:38:50;9.27;;;6.27;;
5690;SDS011;2870;42.680;23.364;2022-09-03T11:41:22;7.87;;;6.50;;
5690;SDS011;2870;42.680;23.364;2022-09-03T11:43:51;9.70;;;7.50;;
5690;SDS011;2870;42.680;23.364;2022-09-03T11:46:28;9.43;;;6.80;;
5690;SDS011;2870;42.680;23.364;2022-09-03T11:49:08;9.47;;;7.03;;
5690;SDS011;2870;42.680;23.364;2022-09-03T11:51:38;10.80;;;7.10;;
5690;SDS011;2870;42.680;23.364;2022-09-03T11:54:24;10.47;;;8.17;;
5690;SDS011;2870;42.680;23.364;2022-09-03T11:57:02;9.83;;;7.63;;
5690;SDS011;2870;42.680;23.364;2022-09-03T11:59:35;14.23;;;7.40;;
5690;SDS011;2870;42.680;23.364;2022-09-03T12:02:03;11.77;;;6.97;;
5690;SDS011;2870;42.680;23.364;2022-09-03T12:04:49;15.43;;;7.07;;
5690;SDS011;2870;42.680;23.364;2022-09-03T12:07:30;9.30;;;7.13;;
5690;SDS011;2870;42.680;23.364;2022-09-03T12:10:17;11.87;;;7.07;;
5690;SDS011;2870;42.680;23.364;2022-09-03T12:12:54;10.80;;;7.00;;
5690;SDS011;2870;42.680;23.364;2022-09-03T12:15:34;10.67;;;7.40;;
5690;SDS011;2870;42.680;23.364;2022-09-03T12:18:13;8.37;;;7.20;;
5690;SDS011;2870;42.680;23.364;2022-09-03T12:20:44;9.70;;;7.40;;
5690;SDS011;2870;42.680;23.364;2022-09-03T12:23:12;8.33;;;7.00;;
5690;SDS011;2870;42.680;23.364;2022-09-03T12:25:52;8.90;;;6.63;;
5690;SDS011;2870;42.680;23.364;2022-09-03T12:28:21;9.83;;;7.07;;
5690;SDS011;2870;42.680;23.364;2022-09-03T12:30:49;9.50;;;6.30;;
5690;SDS011;2870;42.680;23.364;2022-09-03T12:33:18;9.57;;;6.90;;
5690;SDS011;2870;42.680;23.364;2022-09-03T12:35:54;13.53;;;6.97;;
5690;SDS011;2870;42.680;23.364;2022-09-03T12:38:22;8.27;;;6.20;;
5690;SDS011;2870;42.680;23.364;2022-09-03T12:40:50;11.33;;;8.37;;
5690;SDS011;2870;42.680;23.364;2022-09-03T12:43:18;8.93;;;6.47;;
5690;SDS011;2870;42.680;23.364;2022-09-03T12:45:47;7.80;;;6.10;;
5690;SDS011;2870;42.680;23.364;2022-09-03T12:48:15;10.17;;;7.80;;
5690;SDS011;2870;42.680;23.364;2022-09-03T12:50:43;9.50;;;7.00;;
5690;SDS011;2870;42.680;23.364;2022-09-03T12:53:12;10.10;;;7.53;;
5690;SDS011;2870;42.680;23.364;2022-09-03T12:55:45;9.00;;;7.00;;
5690;SDS011;2870;42.680;23.364;2022-09-03T12:58:16;9.20;;;6.87;;
5690;SDS011;2870;42.680;23.364;2022-09-03T13:00:46;9.27;;;6.50;;
5690;SDS011;2870;42.680;23.364;2022-09-03T13:03:21;7.97;;;6.53;;
5690;SDS011;2870;42.680;23.364;2022-09-03T13:05:53;9.77;;;6.80;;
5690;SDS011;2870;42.680;23.364;2022-09-03T13:08:26;9.47;;;5.40;;
5690;SDS011;2870;42.680;23.364;2022-09-03T13:10:57;9.57;;;4.87;;
5690;SDS011;2870;42.680;23.364;2022-09-03T13:13:29;8.60;;;5.00;;
5690;SDS011;2870;42.680;23.364;2022-09-03T13:16:13;7.50;;;5.50;;
5690;SDS011;2870;42.680;23.364;2022-09-03T13:18:53;8.30;;;5.90;;
5690;SDS011;2870;42.680;23.364;2022-09-03T13:21:28;11.33;;;5.60;;
5690;SDS011;2870;42.680;23.364;2022-09-03T13:24:03;7.07;;;5.07;;
5690;SDS011;2870;42.680;23.364;2022-09-03T13:26:43;7.00;;;5.10;;
5690;SDS011;2870;42.680;23.364;2022-09-03T13:29:27;7.00;;;5.33;;
5690;SDS011;2870;42.680;23.364;2022-09-03T13:32:07;6.97;;;5.40;;
5690;SDS011;2870;42.680;23.364;2022-09-03T13:34:41;7.57;;;5.80;;
5690;SDS011;2870;42.680;23.364;2022-09-03T13:37:18;9.00;;;4.87;;
5690;SDS011;2870;42.680;23.364;2022-09-03T13:39:52;9.13;;;6.00;;
5690;SDS011;2870;42.680;23.364;2022-09-03T13:42:24;6.60;;;4.90;;
5690;SDS011;2870;42.680;23.364;2022-09-03T13:45:00;7.40;;;4.93;;
5690;SDS011;2870;42.680;23.364;2022-09-03T13:47:32;6.67;;;5.00;;
5690;SDS011;2870;42.680;23.364;2022-09-03T13:50:26;9.33;;;6.20;;
5690;SDS011;2870;42.680;23.364;2022-09-03T13:52:56;6.20;;;4.50;;
5690;SDS011;2870;42.680;23.364;2022-09-03T13:55:40;7.30;;;4.70;;
5690;SDS011;2870;42.680;23.364;2022-09-03T13:58:17;8.63;;;6.50;;
5690;SDS011;2870;42.680;23.364;2022-09-03T14:00:51;7.47;;;5.00;;
5690;SDS011;2870;42.680;23.364;2022-09-03T14:03:30;6.50;;;4.73;;
5690;SDS011;2870;42.680;23.364;2022-09-03T14:06:01;8.10;;;3.83;;
5690;SDS011;2870;42.680;23.364;2022-09-03T14:08:34;5.50;;;3.97;;
5690;SDS011;2870;42.680;23.364;2022-09-03T14:11:18;5.40;;;3.80;;
5690;SDS011;2870;42.680;23.364;2022-09-03T14:13:54;6.70;;;4.07;;
5690;SDS011;2870;42.680;23.364;2022-09-03T14:16:36;6.20;;;4.23;;
5690;SDS011;2870;42.680;23.364;2022-09-03T14:19:10;10.27;;;4.60;;
5690;SDS011;2870;42.680;23.364;2022-09-03T14:21:42;6.57;;;4.90;;
5690;SDS011;2870;42.680;23.364;2022-09-03T14:24:13;13.87;;;5.67;;
5690;SDS011;2870;42.680;23.364;2022-09-03T14:26:49;13.40;;;5.17;;
5690;SDS011;2870;42.680;23.364;2022-09-03T14:29:18;7.10;;;4.73;;
5690;SDS011;2870;42.680;23.364;2022-09-03T14:31:58;11.73;;;6.90;;
5690;SDS011;2870;42.680;23.364;2022-09-03T14:34:51;10.37;;;7.40;;
5690;SDS011;2870;42.680;23.364;2022-09-03T14:37:35;9.37;;;6.53;;
5690;SDS011;2870;42.680;23.364;2022-09-03T14:40:17;7.13;;;4.90;;
5690;SDS011;2870;42.680;23.364;2022-09-03T14:42:54;11.07;;;6.93;;
5690;SDS011;2870;42.680;23.364;2022-09-03T14:45:39;8.93;;;6.40;;
5690;SDS011;2870;42.680;23.364;2022-09-03T14:51:25;7.87;;;5.40;;
5690;SDS011;2870;42.680;23.364;2022-09-03T14:54:18;8.03;;;5.40;;
5690;SDS011;2870;42.680;23.364;2022-09-03T14:57:21;8.63;;;5.07;;
5690;SDS011;2870;42.680;23.364;2022-09-03T15:00:05;7.43;;;5.70;;
5690;SDS011;2870;42.680;23.364;2022-09-03T15:05:48;8.63;;;5.07;;
5690;SDS011;2870;42.680;23.364;2022-09-03T15:08:40;13.13;;;6.20;;
5690;SDS011;2870;42.680;23.364;2022-09-03T15:11:16;7.33;;;5.80;;
5690;SDS011;2870;42.680;23.364;2022-09-03T15:13:48;7.60;;;5.47;;
5690;SDS011;2870;42.680;23.364;2022-09-03T15:16:26;10.00;;;6.17;;
5690;SDS011;2870;42.680;23.364;2022-09-03T15:19:15;20.47;;;8.50;;
5690;SDS011;2870;42.680;23.364;2022-09-03T15:22:06;9.93;;;5.70;;
5690;SDS011;2870;42.680;23.364;2022-09-03T15:24:45;7.00;;;5.00;;
5690;SDS011;2870;42.680;23.364;2022-09-03T15:27:23;9.43;;;6.83;;
5690;SDS011;2870;42.680;23.364;2022-09-03T15:30:07;7.13;;;5.07;;
5690;SDS011;2870;42.680;23.364;2022-09-03T15:32:48;10.67;;;5.70;;
5690;SDS011;2870;42.680;23.364;2022-09-03T15:35:35;8.10;;;5.70;;